sensor_id;sensor_type;location;lat;lon;timestamp;P1;durP1;ratioP1;P2;durP2;ratioP2
5987;SDS011;3021;51.000;6.980;2024-02-21T00:01:05;15.15;;;5.85;;
5987;SDS011;3021;51.000;6.980;2024-02-21T00:03:30;14.80;;;5.82;;
5987;SDS011;3021;51.000;6.980;2024-02-21T00:05:56;20.92;;;5.95;;
5987;SDS011;3021;51.000;6.980;2024-02-21T00:08:21;14.57;;;6.25;;
5987;SDS011;3021;51.000;6.980;2024-02-21T00:10:46;15.18;;;5.68;;
5987;SDS011;3021;51.000;6.980;2024-02-21T00:13:12;17.17;;;6.32;;
5987;SDS011;3021;51.000;6.980;2024-02-21T00:15:37;18.83;;;6.32;;
5987;SDS011;3021;51.000;6.980;2024-02-21T00:18:03;15.32;;;5.45;;
5987;SDS011;3021;51.000;6.980;2024-02-21T00:20:28;16.15;;;6.68;;
5987;SDS011;3021;51.000;6.980;2024-02-21T00:22:53;16.70;;;6.03;;
5987;SDS011;3021;51.000;6.980;2024-02-21T00:25:19;19.10;;;5.85;;
5987;SDS011;3021;51.000;6.980;2024-02-21T00:27:45;15.50;;;6.43;;
5987;SDS011;3021;51.000;6.980;2024-02-21T00:30:10;18.30;;;7.22;;
5987;SDS011;3021;51.000;6.980;2024-02-21T00:32:36;20.42;;;6.90;;
5987;SDS011;3021;51.000;6.980;2024-02-21T00:35:01;26.65;;;6.72;;
5987;SDS011;3021;51.000;6.980;2024-02-21T00:37:27;16.75;;;5.80;;
5987;SDS011;3021;51.000;6.980;2024-02-21T00:39:53;18.40;;;6.10;;
5987;SDS011;3021;51.000;6.980;2024-02-21T00:42:19;21.70;;;6.18;;
5987;SDS011;3021;51.000;6.980;2024-02-21T00:44:44;15.00;;;6.28;;
5987;SDS011;3021;51.000;6.980;2024-02-21T00:47:10;22.80;;;7.03;;
5987;SDS011;3021;51.000;6.980;2024-02-21T00:49:35;21.38;;;6.78;;
5987;SDS011;3021;51.000;6.980;2024-02-21T00:52:00;18.52;;;6.72;;
5987;SDS011;3021;51.000;6.980;2024-02-21T00:54:26;19.95;;;6.80;;
5987;SDS011;3021;51.000;6.980;2024-02-21T00:56:51;16.92;;;6.18;;
5987;SDS011;3021;51.000;6.980;2024-02-21T00:59:18;25.80;;;7.72;;
5987;SDS011;3021;51.000;6.980;2024-02-21T01:01:43;22.95;;;6.57;;
5987;SDS011;3021;51.000;6.980;2024-02-21T01:04:09;17.42;;;6.70;;
5987;SDS011;3021;51.000;6.980;2024-02-21T01:06:34;26.48;;;7.60;;
5987;SDS011;3021;51.000;6.980;2024-02-21T01:09:00;17.25;;;6.50;;
5987;SDS011;3021;51.000;6.980;2024-02-21T01:11:25;22.00;;;6.95;;
5987;SDS011;3021;51.000;6.980;2024-02-21T01:13:50;17.85;;;6.38;;
5987;SDS011;3021;51.000;6.980;2024-02-21T01:16:16;19.90;;;6.85;;
5987;SDS011;3021;51.000;6.980;2024-02-21T01:18:41;18.70;;;7.53;;
5987;SDS011;3021;51.000;6.980;2024-02-21T01:21:07;21.13;;;7.60;;
5987;SDS011;3021;51.000;6.980;2024-02-21T01:23:36;17.10;;;6.50;;
5987;SDS011;3021;51.000;6.980;2024-02-21T01:26:02;22.08;;;6.60;;
5987;SDS011;3021;51.000;6.980;2024-02-21T01:28:28;17.75;;;5.75;;
5987;SDS011;3021;51.000;6.980;2024-02-21T01:30:54;19.17;;;6.68;;
5987;SDS011;3021;51.000;6.980;2024-02-21T01:33:20;21.25;;;6.40;;
5987;SDS011;3021;51.000;6.980;2024-02-21T01:35:46;22.00;;;7.72;;
5987;SDS011;3021;51.000;6.980;2024-02-21T01:38:12;21.85;;;7.68;;
5987;SDS011;3021;51.000;6.980;2024-02-21T01:40:38;21.65;;;6.68;;
5987;SDS011;3021;51.000;6.980;2024-02-21T01:43:03;20.88;;;6.85;;
5987;SDS011;3021;51.000;6.980;2024-02-21T01:45:29;23.92;;;7.22;;
5987;SDS011;3021;51.000;6.980;2024-02-21T01:47:54;14.10;;;6.07;;
5987;SDS011;3021;51.000;6.980;2024-02-21T01:50:20;19.20;;;6.30;;
5987;SDS011;3021;51.000;6.980;2024-02-21T01:52:47;18.70;;;6.65;;
5987;SDS011;3021;51.000;6.980;2024-02-21T01:55:14;18.65;;;7.47;;
5987;SDS011;3021;51.000;6.980;2024-02-21T01:57:41;18.48;;;7.25;;
5987;SDS011;3021;51.000;6.980;2024-02-21T02:00:10;20.95;;;6.63;;
5987;SDS011;3021;51.000;6.980;2024-02-21T02:02:38;23.17;;;6.72;;
5987;SDS011;3021;51.000;6.980;2024-02-21T02:05:04;25.77;;;7.60;;
5987;SDS011;3021;51.000;6.980;2024-02-21T02:07:31;16.10;;;6.38;;
5987;SDS011;3021;51.000;6.980;2024-02-21T02:09:56;16.70;;;7.00;;
5987;SDS011;3021;51.000;6.980;2024-02-21T02:12:22;18.05;;;6.72;;
5987;SDS011;3021;51.000;6.980;2024-02-21T02:14:57;23.50;;;7.57;;
5987;SDS011;3021;51.000;6.980;2024-02-21T02:17:25;20.13;;;7.18;;
5987;SDS011;3021;51.000;6.980;2024-02-21T02:19:51;20.02;;;7.28;;
5987;SDS011;3021;51.000;6.980;2024-02-21T02:22:17;18.80;;;7.10;;
5987;SDS011;3021;51.000;6.980;2024-02-21T02:24:47;17.38;;;7.38;;
5987;SDS011;3021;51.000;6.980;2024-02-21T02:27:13;18.70;;;6.97;;
5987;SDS011;3021;51.000;6.980;2024-02-21T02:29:39;18.83;;;7.13;;
5987;SDS011;3021;51.000;6.980;2024-02-21T02:32:04;17.48;;;6.93;;
5987;SDS011;3021;51.000;6.980;2024-02-21T02:34:30;17.85;;;6.68;;
5987;SDS011;3021;51.000;6.980;2024-02-21T02:36:55;19.95;;;7.00;;
5987;SDS011;3021;51.000;6.980;2024-02-21T02:39:21;16.02;;;5.95;;
5987;SDS011;3021;51.000;6.980;2024-02-21T02:41:46;15.10;;;6.60;;
5987;SDS011;3021;51.000;6.980;2024-02-21T02:44:11;22.23;;;6.90;;
5987;SDS011;3021;51.000;6.980;2024-02-21T02:46:39;17.58;;;6.75;;
5987;SDS011;3021;51.000;6.980;2024-02-21T02:49:05;21.20;;;6.05;;
5987;SDS011;3021;51.000;6.980;2024-02-21T02:51:31;24.70;;;6.53;;
5987;SDS011;3021;51.000;6.980;2024-02-21T02:53:56;15.55;;;6.45;;
5987;SDS011;3021;51.000;6.980;2024-02-21T02:56:22;20.02;;;6.07;;
5987;SDS011;3021;51.000;6.980;2024-02-21T02:58:47;18.13;;;6.20;;
5987;SDS011;3021;51.000;6.980;2024-02-21T03:01:12;16.38;;;5.93;;
5987;SDS011;3021;51.000;6.980;2024-02-21T03:03:38;24.85;;;6.47;;
5987;SDS011;3021;51.000;6.980;2024-02-21T03:06:04;20.67;;;7.13;;
5987;SDS011;3021;51.000;6.980;2024-02-21T03:08:29;18.02;;;6.80;;
5987;SDS011;3021;51.000;6.980;2024-02-21T03:10:55;17.80;;;6.15;;
5987;SDS011;3021;51.000;6.980;2024-02-21T03:13:20;22.70;;;6.80;;
5987;SDS011;3021;51.000;6.980;2024-02-21T03:15:45;15.52;;;6.55;;
5987;SDS011;3021;51.000;6.980;2024-02-21T03:18:11;19.52;;;7.55;;
5987;SDS011;3021;51.000;6.980;2024-02-21T03:20:36;14.57;;;6.63;;
5987;SDS011;3021;51.000;6.980;2024-02-21T03:23:01;21.25;;;6.70;;
5987;SDS011;3021;51.000;6.980;2024-02-21T03:25:26;18.50;;;7.13;;
5987;SDS011;3021;51.000;6.980;2024-02-21T03:27:52;19.70;;;6.07;;
5987;SDS011;3021;51.000;6.980;2024-02-21T03:30:17;17.05;;;7.40;;
5987;SDS011;3021;51.000;6.980;2024-02-21T03:32:42;16.35;;;6.50;;
5987;SDS011;3021;51.000;6.980;2024-02-21T03:35:08;22.02;;;6.65;;
5987;SDS011;3021;51.000;6.980;2024-02-21T03:37:33;17.45;;;6.15;;
5987;SDS011;3021;51.000;6.980;2024-02-21T03:39:59;14.50;;;6.63;;
5987;SDS011;3021;51.000;6.980;2024-02-21T03:42:24;17.02;;;6.55;;
5987;SDS011;3021;51.000;6.980;2024-02-21T03:44:50;13.10;;;5.80;;
5987;SDS011;3021;51.000;6.980;2024-02-21T03:47:15;17.33;;;5.88;;
5987;SDS011;3021;51.000;6.980;2024-02-21T03:49:40;16.23;;;6.53;;
5987;SDS011;3021;51.000;6.980;2024-02-21T03:52:06;20.77;;;7.20;;
5987;SDS011;3021;51.000;6.980;2024-02-21T03:54:31;15.90;;;6.47;;
5987;SDS011;3021;51.000;6.980;2024-02-21T03:56:56;16.10;;;6.00;;
5987;SDS011;3021;51.000;6.980;2024-02-21T03:59:22;15.73;;;6.50;;
5987;SDS011;3021;51.000;6.980;2024-02-21T04:01:51;14.27;;;6.00;;
5987;SDS011;3021;51.000;6.980;2024-02-21T04:04:17;13.55;;;5.72;;
5987;SDS011;3021;51.000;6.980;2024-02-21T04:06:45;13.13;;;5.75;;
5987;SDS011;3021;51.000;6.980;2024-02-21T04:09:12;14.75;;;5.93;;
5987;SDS011;3021;51.000;6.980;2024-02-21T04:11:37;17.42;;;6.68;;
5987;SDS011;3021;51.000;6.980;2024-02-21T04:14:02;19.48;;;6.90;;
5987;SDS011;3021;51.000;6.980;2024-02-21T04:16:28;18.90;;;6.05;;
5987;SDS011;3021;51.000;6.980;2024-02-21T04:18:53;19.08;;;6.43;;
5987;SDS011;3021;51.000;6.980;2024-02-21T04:21:18;15.93;;;5.72;;
5987;SDS011;3021;51.000;6.980;2024-02-21T04:23:44;21.05;;;6.55;;
5987;SDS011;3021;51.000;6.980;2024-02-21T04:26:09;19.27;;;6.57;;
5987;SDS011;3021;51.000;6.980;2024-02-21T04:28:34;18.35;;;6.30;;
5987;SDS011;3021;51.000;6.980;2024-02-21T04:31:00;24.50;;;6.40;;
5987;SDS011;3021;51.000;6.980;2024-02-21T04:33:25;18.58;;;6.13;;
5987;SDS011;3021;51.000;6.980;2024-02-21T04:35:50;17.50;;;5.93;;
5987;SDS011;3021;51.000;6.980;2024-02-21T04:38:16;10.88;;;5.38;;
5987;SDS011;3021;51.000;6.980;2024-02-21T04:40:42;16.77;;;6.63;;
5987;SDS011;3021;51.000;6.980;2024-02-21T04:43:07;14.40;;;6.28;;
5987;SDS011;3021;51.000;6.980;2024-02-21T04:45:32;16.75;;;6.43;;
5987;SDS011;3021;51.000;6.980;2024-02-21T04:47:57;17.02;;;6.40;;
5987;SDS011;3021;51.000;6.980;2024-02-21T04:50:23;16.05;;;7.07;;
5987;SDS011;3021;51.000;6.980;2024-02-21T04:52:48;19.45;;;6.35;;
5987;SDS011;3021;51.000;6.980;2024-02-21T04:55:13;22.88;;;7.30;;
5987;SDS011;3021;51.000;6.980;2024-02-21T04:57:39;19.63;;;6.88;;
5987;SDS011;3021;51.000;6.980;2024-02-21T05:00:05;21.77;;;7.20;;
5987;SDS011;3021;51.000;6.980;2024-02-21T05:02:31;19.63;;;7.18;;
5987;SDS011;3021;51.000;6.980;2024-02-21T05:04:56;21.48;;;7.63;;
5987;SDS011;3021;51.000;6.980;2024-02-21T05:07:21;16.70;;;6.22;;
5987;SDS011;3021;51.000;6.980;2024-02-21T05:09:47;18.63;;;6.47;;
5987;SDS011;3021;51.000;6.980;2024-02-21T05:12:12;13.65;;;5.97;;
5987;SDS011;3021;51.000;6.980;2024-02-21T05:14:38;19.38;;;6.70;;
5987;SDS011;3021;51.000;6.980;2024-02-21T05:17:04;19.42;;;6.80;;
5987;SDS011;3021;51.000;6.980;2024-02-21T05:19:29;22.15;;;6.55;;
5987;SDS011;3021;51.000;6.980;2024-02-21T05:21:54;19.83;;;6.97;;
5987;SDS011;3021;51.000;6.980;2024-02-21T05:24:20;17.48;;;6.68;;
5987;SDS011;3021;51.000;6.980;2024-02-21T05:26:45;24.52;;;7.93;;
5987;SDS011;3021;51.000;6.980;2024-02-21T05:29:11;19.42;;;6.43;;
5987;SDS011;3021;51.000;6.980;2024-02-21T05:32:09;18.23;;;6.85;;
5987;SDS011;3021;51.000;6.980;2024-02-21T05:34:28;21.20;;;6.78;;
5987;SDS011;3021;51.000;6.980;2024-02-21T05:36:53;17.30;;;6.50;;
5987;SDS011;3021;51.000;6.980;2024-02-21T05:39:19;23.95;;;8.90;;
5987;SDS011;3021;51.000;6.980;2024-02-21T05:41:47;20.27;;;7.40;;
5987;SDS011;3021;51.000;6.980;2024-02-21T05:44:12;21.55;;;8.13;;
5987;SDS011;3021;51.000;6.980;2024-02-21T05:46:38;17.23;;;7.45;;
5987;SDS011;3021;51.000;6.980;2024-02-21T05:49:03;23.10;;;7.22;;
5987;SDS011;3021;51.000;6.980;2024-02-21T05:51:32;16.80;;;6.10;;
5987;SDS011;3021;51.000;6.980;2024-02-21T05:54:00;15.48;;;5.97;;
5987;SDS011;3021;51.000;6.980;2024-02-21T05:56:26;15.32;;;5.60;;
5987;SDS011;3021;51.000;6.980;2024-02-21T05:58:51;15.05;;;5.75;;
5987;SDS011;3021;51.000;6.980;2024-02-21T06:01:17;14.07;;;5.80;;
5987;SDS011;3021;51.000;6.980;2024-02-21T06:03:43;10.95;;;4.93;;
5987;SDS011;3021;51.000;6.980;2024-02-21T06:06:08;15.00;;;5.50;;
5987;SDS011;3021;51.000;6.980;2024-02-21T06:08:33;12.93;;;5.35;;
5987;SDS011;3021;51.000;6.980;2024-02-21T06:10:59;16.10;;;5.72;;
5987;SDS011;3021;51.000;6.980;2024-02-21T06:13:24;14.68;;;6.00;;
5987;SDS011;3021;51.000;6.980;2024-02-21T06:15:50;14.18;;;5.32;;
5987;SDS011;3021;51.000;6.980;2024-02-21T06:18:17;12.13;;;4.57;;
5987;SDS011;3021;51.000;6.980;2024-02-21T06:20:42;13.20;;;4.95;;
5987;SDS011;3021;51.000;6.980;2024-02-21T06:23:08;16.60;;;4.75;;
5987;SDS011;3021;51.000;6.980;2024-02-21T06:25:34;15.88;;;5.32;;
5987;SDS011;3021;51.000;6.980;2024-02-21T06:27:59;16.63;;;5.32;;
5987;SDS011;3021;51.000;6.980;2024-02-21T06:30:24;11.43;;;5.32;;
5987;SDS011;3021;51.000;6.980;2024-02-21T06:32:50;9.75;;;4.63;;
5987;SDS011;3021;51.000;6.980;2024-02-21T06:35:15;15.32;;;5.10;;
5987;SDS011;3021;51.000;6.980;2024-02-21T06:37:41;16.70;;;5.40;;
5987;SDS011;3021;51.000;6.980;2024-02-21T06:40:07;18.90;;;4.75;;
5987;SDS011;3021;51.000;6.980;2024-02-21T06:42:32;14.40;;;5.05;;
5987;SDS011;3021;51.000;6.980;2024-02-21T06:44:58;12.75;;;4.97;;
5987;SDS011;3021;51.000;6.980;2024-02-21T06:47:23;15.63;;;5.00;;
5987;SDS011;3021;51.000;6.980;2024-02-21T06:49:49;18.60;;;5.90;;
5987;SDS011;3021;51.000;6.980;2024-02-21T06:52:18;16.33;;;5.55;;
5987;SDS011;3021;51.000;6.980;2024-02-21T06:54:45;16.27;;;6.15;;
5987;SDS011;3021;51.000;6.980;2024-02-21T06:57:12;15.40;;;6.05;;
5987;SDS011;3021;51.000;6.980;2024-02-21T06:59:38;12.43;;;5.93;;
5987;SDS011;3021;51.000;6.980;2024-02-21T07:02:03;18.48;;;5.82;;
5987;SDS011;3021;51.000;6.980;2024-02-21T07:04:28;17.33;;;6.25;;
5987;SDS011;3021;51.000;6.980;2024-02-21T07:06:54;12.55;;;5.85;;
5987;SDS011;3021;51.000;6.980;2024-02-21T07:09:19;19.67;;;6.85;;
5987;SDS011;3021;51.000;6.980;2024-02-21T07:11:45;17.17;;;6.20;;
5987;SDS011;3021;51.000;6.980;2024-02-21T07:14:10;17.73;;;6.15;;
5987;SDS011;3021;51.000;6.980;2024-02-21T07:16:35;13.18;;;5.82;;
5987;SDS011;3021;51.000;6.980;2024-02-21T07:19:00;12.07;;;5.55;;
5987;SDS011;3021;51.000;6.980;2024-02-21T07:21:26;21.27;;;6.65;;
5987;SDS011;3021;51.000;6.980;2024-02-21T07:23:51;17.90;;;6.28;;
5987;SDS011;3021;51.000;6.980;2024-02-21T07:26:16;15.57;;;5.80;;
5987;SDS011;3021;51.000;6.980;2024-02-21T07:28:42;15.07;;;5.65;;
5987;SDS011;3021;51.000;6.980;2024-02-21T07:31:07;22.05;;;7.13;;
5987;SDS011;3021;51.000;6.980;2024-02-21T07:33:32;13.77;;;5.70;;
5987;SDS011;3021;51.000;6.980;2024-02-21T07:35:58;15.68;;;5.90;;
5987;SDS011;3021;51.000;6.980;2024-02-21T07:38:23;12.63;;;5.05;;
5987;SDS011;3021;51.000;6.980;2024-02-21T07:40:48;16.58;;;5.88;;
5987;SDS011;3021;51.000;6.980;2024-02-21T07:43:13;12.48;;;5.68;;
5987;SDS011;3021;51.000;6.980;2024-02-21T07:45:39;11.82;;;5.03;;
5987;SDS011;3021;51.000;6.980;2024-02-21T07:48:05;14.27;;;5.40;;
5987;SDS011;3021;51.000;6.980;2024-02-21T07:50:31;16.75;;;5.18;;
5987;SDS011;3021;51.000;6.980;2024-02-21T07:52:56;13.02;;;4.45;;
5987;SDS011;3021;51.000;6.980;2024-02-21T07:55:22;10.48;;;4.03;;
5987;SDS011;3021;51.000;6.980;2024-02-21T07:57:47;12.52;;;4.57;;
5987;SDS011;3021;51.000;6.980;2024-02-21T08:00:12;16.60;;;4.57;;
5987;SDS011;3021;51.000;6.980;2024-02-21T08:02:44;13.65;;;4.38;;
5987;SDS011;3021;51.000;6.980;2024-02-21T08:05:11;13.25;;;4.55;;
5987;SDS011;3021;51.000;6.980;2024-02-21T08:07:37;12.00;;;4.55;;
5987;SDS011;3021;51.000;6.980;2024-02-21T08:10:03;14.80;;;4.68;;
5987;SDS011;3021;51.000;6.980;2024-02-21T08:12:29;12.07;;;4.35;;
5987;SDS011;3021;51.000;6.980;2024-02-21T08:14:54;13.73;;;4.72;;
5987;SDS011;3021;51.000;6.980;2024-02-21T08:17:19;13.10;;;4.07;;
5987;SDS011;3021;51.000;6.980;2024-02-21T08:19:45;13.98;;;4.63;;
5987;SDS011;3021;51.000;6.980;2024-02-21T08:22:10;13.98;;;4.53;;
5987;SDS011;3021;51.000;6.980;2024-02-21T08:24:35;17.35;;;4.28;;
5987;SDS011;3021;51.000;6.980;2024-02-21T08:27:01;11.18;;;4.18;;
5987;SDS011;3021;51.000;6.980;2024-02-21T08:29:26;9.10;;;3.85;;
5987;SDS011;3021;51.000;6.980;2024-02-21T08:31:52;11.05;;;4.32;;
5987;SDS011;3021;51.000;6.980;2024-02-21T08:34:18;15.70;;;5.13;;
5987;SDS011;3021;51.000;6.980;2024-02-21T08:36:44;16.75;;;4.30;;
5987;SDS011;3021;51.000;6.980;2024-02-21T08:39:09;15.40;;;4.30;;
5987;SDS011;3021;51.000;6.980;2024-02-21T08:41:34;13.82;;;4.20;;
5987;SDS011;3021;51.000;6.980;2024-02-21T08:44:00;13.57;;;4.30;;
5987;SDS011;3021;51.000;6.980;2024-02-21T08:46:25;15.48;;;4.55;;
5987;SDS011;3021;51.000;6.980;2024-02-21T08:48:52;13.68;;;4.20;;
5987;SDS011;3021;51.000;6.980;2024-02-21T08:51:18;17.13;;;4.35;;
5987;SDS011;3021;51.000;6.980;2024-02-21T08:53:44;9.38;;;4.15;;
5987;SDS011;3021;51.000;6.980;2024-02-21T08:56:10;18.45;;;4.40;;
5987;SDS011;3021;51.000;6.980;2024-02-21T08:58:36;13.48;;;4.53;;
5987;SDS011;3021;51.000;6.980;2024-02-21T09:01:04;13.50;;;4.82;;
5987;SDS011;3021;51.000;6.980;2024-02-21T09:03:33;17.33;;;5.35;;
5987;SDS011;3021;51.000;6.980;2024-02-21T09:05:59;11.98;;;4.60;;
5987;SDS011;3021;51.000;6.980;2024-02-21T09:08:25;17.88;;;5.28;;
5987;SDS011;3021;51.000;6.980;2024-02-21T09:10:51;15.25;;;4.82;;
5987;SDS011;3021;51.000;6.980;2024-02-21T09:13:17;17.92;;;4.75;;
5987;SDS011;3021;51.000;6.980;2024-02-21T09:15:42;11.60;;;4.43;;
5987;SDS011;3021;51.000;6.980;2024-02-21T09:18:08;11.25;;;4.68;;
5987;SDS011;3021;51.000;6.980;2024-02-21T09:20:33;18.80;;;4.72;;
5987;SDS011;3021;51.000;6.980;2024-02-21T09:22:58;11.82;;;4.47;;
5987;SDS011;3021;51.000;6.980;2024-02-21T09:25:24;10.73;;;4.35;;
5987;SDS011;3021;51.000;6.980;2024-02-21T09:27:49;13.82;;;4.38;;
5987;SDS011;3021;51.000;6.980;2024-02-21T09:30:17;14.95;;;3.85;;
5987;SDS011;3021;51.000;6.980;2024-02-21T09:32:42;8.80;;;3.90;;
5987;SDS011;3021;51.000;6.980;2024-02-21T09:35:08;15.50;;;3.90;;
5987;SDS011;3021;51.000;6.980;2024-02-21T09:37:33;12.65;;;4.40;;
5987;SDS011;3021;51.000;6.980;2024-02-21T09:39:59;13.63;;;3.83;;
5987;SDS011;3021;51.000;6.980;2024-02-21T09:42:32;13.50;;;3.92;;
5987;SDS011;3021;51.000;6.980;2024-02-21T09:45:04;9.70;;;3.63;;
5987;SDS011;3021;51.000;6.980;2024-02-21T09:47:41;12.55;;;3.80;;
5987;SDS011;3021;51.000;6.980;2024-02-21T09:50:15;16.23;;;4.13;;
5987;SDS011;3021;51.000;6.980;2024-02-21T09:52:42;14.55;;;3.63;;
5987;SDS011;3021;51.000;6.980;2024-02-21T09:55:09;12.40;;;3.80;;
5987;SDS011;3021;51.000;6.980;2024-02-21T09:57:37;10.70;;;3.40;;
5987;SDS011;3021;51.000;6.980;2024-02-21T10:00:04;14.52;;;3.75;;
5987;SDS011;3021;51.000;6.980;2024-02-21T10:02:32;8.80;;;3.42;;
5987;SDS011;3021;51.000;6.980;2024-02-21T10:04:58;10.60;;;3.67;;
5987;SDS011;3021;51.000;6.980;2024-02-21T10:07:23;10.98;;;4.13;;
5987;SDS011;3021;51.000;6.980;2024-02-21T10:09:59;8.45;;;4.03;;
5987;SDS011;3021;51.000;6.980;2024-02-21T10:12:26;15.45;;;4.03;;
5987;SDS011;3021;51.000;6.980;2024-02-21T10:14:59;11.60;;;3.80;;
5987;SDS011;3021;51.000;6.980;2024-02-21T10:17:28;9.90;;;4.05;;
5987;SDS011;3021;51.000;6.980;2024-02-21T10:19:54;11.23;;;3.30;;
5987;SDS011;3021;51.000;6.980;2024-02-21T10:22:19;14.05;;;3.78;;
5987;SDS011;3021;51.000;6.980;2024-02-21T10:24:48;9.20;;;3.55;;
5987;SDS011;3021;51.000;6.980;2024-02-21T10:27:14;12.32;;;4.55;;
5987;SDS011;3021;51.000;6.980;2024-02-21T10:29:39;15.27;;;3.83;;
5987;SDS011;3021;51.000;6.980;2024-02-21T10:32:09;12.30;;;3.78;;
5987;SDS011;3021;51.000;6.980;2024-02-21T10:34:37;15.48;;;4.10;;
5987;SDS011;3021;51.000;6.980;2024-02-21T10:37:03;11.88;;;3.70;;
5987;SDS011;3021;51.000;6.980;2024-02-21T10:39:31;11.82;;;3.30;;
5987;SDS011;3021;51.000;6.980;2024-02-21T10:41:58;11.73;;;3.72;;
5987;SDS011;3021;51.000;6.980;2024-02-21T10:44:27;11.00;;;3.72;;
5987;SDS011;3021;51.000;6.980;2024-02-21T10:46:55;12.52;;;4.00;;
5987;SDS011;3021;51.000;6.980;2024-02-21T10:49:25;8.60;;;3.33;;
5987;SDS011;3021;51.000;6.980;2024-02-21T10:55:03;14.30;;;3.47;;
5987;SDS011;3021;51.000;6.980;2024-02-21T10:57:31;16.60;;;3.80;;
5987;SDS011;3021;51.000;6.980;2024-02-21T10:59:58;10.40;;;3.53;;
5987;SDS011;3021;51.000;6.980;2024-02-21T11:02:24;7.97;;;3.33;;
5987;SDS011;3021;51.000;6.980;2024-02-21T11:04:51;7.88;;;3.20;;
5987;SDS011;3021;51.000;6.980;2024-02-21T11:07:18;7.07;;;3.28;;
5987;SDS011;3021;51.000;6.980;2024-02-21T11:09:50;13.27;;;3.72;;
5987;SDS011;3021;51.000;6.980;2024-02-21T11:12:19;11.70;;;3.90;;
5987;SDS011;3021;51.000;6.980;2024-02-21T11:14:48;14.05;;;3.35;;
5987;SDS011;3021;51.000;6.980;2024-02-21T11:17:17;13.15;;;3.88;;
5987;SDS011;3021;51.000;6.980;2024-02-21T11:19:43;8.90;;;2.97;;
5987;SDS011;3021;51.000;6.980;2024-02-21T11:22:15;7.75;;;3.25;;
5987;SDS011;3021;51.000;6.980;2024-02-21T11:24:41;13.40;;;3.85;;
5987;SDS011;3021;51.000;6.980;2024-02-21T11:27:14;5.45;;;2.80;;
5987;SDS011;3021;51.000;6.980;2024-02-21T11:32:09;8.13;;;2.60;;
5987;SDS011;3021;51.000;6.980;2024-02-21T11:34:38;8.25;;;3.03;;
5987;SDS011;3021;51.000;6.980;2024-02-21T11:37:12;6.75;;;3.38;;
5987;SDS011;3021;51.000;6.980;2024-02-21T11:39:39;12.10;;;3.83;;
5987;SDS011;3021;51.000;6.980;2024-02-21T11:42:06;9.70;;;3.20;;
5987;SDS011;3021;51.000;6.980;2024-02-21T11:44:33;9.52;;;3.25;;
5987;SDS011;3021;51.000;6.980;2024-02-21T11:47:00;8.52;;;3.13;;
5987;SDS011;3021;51.000;6.980;2024-02-21T11:49:26;9.57;;;3.15;;
5987;SDS011;3021;51.000;6.980;2024-02-21T11:52:00;8.80;;;2.83;;
5987;SDS011;3021;51.000;6.980;2024-02-21T11:54:26;10.68;;;3.00;;
5987;SDS011;3021;51.000;6.980;2024-02-21T11:56:52;9.80;;;2.97;;
5987;SDS011;3021;51.000;6.980;2024-02-21T11:59:18;12.10;;;4.10;;
5987;SDS011;3021;51.000;6.980;2024-02-21T12:01:43;11.55;;;3.63;;
5987;SDS011;3021;51.000;6.980;2024-02-21T12:04:08;8.77;;;3.13;;
5987;SDS011;3021;51.000;6.980;2024-02-21T12:06:35;13.15;;;3.22;;
5987;SDS011;3021;51.000;6.980;2024-02-21T12:09:00;10.05;;;3.42;;
5987;SDS011;3021;51.000;6.980;2024-02-21T12:11:26;7.70;;;3.08;;
5987;SDS011;3021;51.000;6.980;2024-02-21T12:14:00;11.13;;;3.10;;
5987;SDS011;3021;51.000;6.980;2024-02-21T12:16:28;11.05;;;3.38;;
5987;SDS011;3021;51.000;6.980;2024-02-21T12:18:55;6.53;;;2.90;;
5987;SDS011;3021;51.000;6.980;2024-02-21T12:21:29;11.38;;;3.17;;
5987;SDS011;3021;51.000;6.980;2024-02-21T12:23:57;7.55;;;3.17;;
5987;SDS011;3021;51.000;6.980;2024-02-21T12:26:36;11.15;;;3.55;;
5987;SDS011;3021;51.000;6.980;2024-02-21T12:29:01;7.65;;;3.10;;
5987;SDS011;3021;51.000;6.980;2024-02-21T12:31:27;10.00;;;2.95;;
5987;SDS011;3021;51.000;6.980;2024-02-21T12:33:52;11.70;;;3.03;;
5987;SDS011;3021;51.000;6.980;2024-02-21T12:36:18;9.80;;;3.60;;
5987;SDS011;3021;51.000;6.980;2024-02-21T12:38:43;11.95;;;3.20;;
5987;SDS011;3021;51.000;6.980;2024-02-21T12:41:09;15.98;;;3.47;;
5987;SDS011;3021;51.000;6.980;2024-02-21T12:43:34;9.25;;;2.85;;
5987;SDS011;3021;51.000;6.980;2024-02-21T12:46:00;9.65;;;3.63;;
5987;SDS011;3021;51.000;6.980;2024-02-21T12:48:25;9.07;;;3.08;;
5987;SDS011;3021;51.000;6.980;2024-02-21T12:50:50;8.32;;;3.10;;
5987;SDS011;3021;51.000;6.980;2024-02-21T12:53:17;9.65;;;3.05;;
5987;SDS011;3021;51.000;6.980;2024-02-21T12:55:43;8.65;;;2.90;;
5987;SDS011;3021;51.000;6.980;2024-02-21T12:58:09;9.38;;;2.95;;
5987;SDS011;3021;51.000;6.980;2024-02-21T13:00:34;8.65;;;2.90;;
5987;SDS011;3021;51.000;6.980;2024-02-21T13:03:00;12.95;;;3.33;;
5987;SDS011;3021;51.000;6.980;2024-02-21T13:05:26;12.55;;;3.35;;
5987;SDS011;3021;51.000;6.980;2024-02-21T13:07:52;9.30;;;3.00;;
5987;SDS011;3021;51.000;6.980;2024-02-21T13:10:17;7.07;;;2.72;;
5987;SDS011;3021;51.000;6.980;2024-02-21T13:12:43;7.95;;;2.60;;
5987;SDS011;3021;51.000;6.980;2024-02-21T13:15:09;14.13;;;3.38;;
5987;SDS011;3021;51.000;6.980;2024-02-21T13:17:36;9.63;;;3.08;;
5987;SDS011;3021;51.000;6.980;2024-02-21T13:20:02;8.73;;;2.50;;
5987;SDS011;3021;51.000;6.980;2024-02-21T13:22:28;10.00;;;3.17;;
5987;SDS011;3021;51.000;6.980;2024-02-21T13:24:53;16.13;;;7.38;;
5987;SDS011;3021;51.000;6.980;2024-02-21T13:27:18;10.73;;;2.97;;
5987;SDS011;3021;51.000;6.980;2024-02-21T13:29:44;11.57;;;3.17;;
5987;SDS011;3021;51.000;6.980;2024-02-21T13:32:10;8.43;;;3.00;;
5987;SDS011;3021;51.000;6.980;2024-02-21T13:34:35;9.25;;;3.00;;
5987;SDS011;3021;51.000;6.980;2024-02-21T13:37:01;12.38;;;3.10;;
5987;SDS011;3021;51.000;6.980;2024-02-21T13:39:26;9.60;;;2.92;;
5987;SDS011;3021;51.000;6.980;2024-02-21T13:41:51;10.75;;;2.67;;
5987;SDS011;3021;51.000;6.980;2024-02-21T13:44:17;9.02;;;2.92;;
5987;SDS011;3021;51.000;6.980;2024-02-21T13:46:42;6.40;;;3.13;;
5987;SDS011;3021;51.000;6.980;2024-02-21T13:49:08;10.68;;;3.35;;
5987;SDS011;3021;51.000;6.980;2024-02-21T13:51:34;8.32;;;3.15;;
5987;SDS011;3021;51.000;6.980;2024-02-21T13:54:02;7.55;;;2.67;;
5987;SDS011;3021;51.000;6.980;2024-02-21T13:56:34;6.60;;;2.67;;
5987;SDS011;3021;51.000;6.980;2024-02-21T13:58:59;7.55;;;2.97;;
5987;SDS011;3021;51.000;6.980;2024-02-21T14:01:25;9.50;;;3.45;;
5987;SDS011;3021;51.000;6.980;2024-02-21T14:03:53;9.43;;;3.00;;
5987;SDS011;3021;51.000;6.980;2024-02-21T14:06:18;9.35;;;3.00;;
5987;SDS011;3021;51.000;6.980;2024-02-21T14:08:43;6.38;;;2.80;;
5987;SDS011;3021;51.000;6.980;2024-02-21T14:11:09;12.02;;;2.83;;
5987;SDS011;3021;51.000;6.980;2024-02-21T14:13:34;7.35;;;3.17;;
5987;SDS011;3021;51.000;6.980;2024-02-21T14:16:00;10.43;;;2.97;;
5987;SDS011;3021;51.000;6.980;2024-02-21T14:18:25;13.73;;;2.92;;
5987;SDS011;3021;51.000;6.980;2024-02-21T14:20:50;9.25;;;3.53;;
5987;SDS011;3021;51.000;6.980;2024-02-21T14:23:16;11.25;;;3.30;;
5987;SDS011;3021;51.000;6.980;2024-02-21T14:25:41;10.35;;;2.85;;
5987;SDS011;3021;51.000;6.980;2024-02-21T14:28:07;9.18;;;3.20;;
5987;SDS011;3021;51.000;6.980;2024-02-21T14:30:34;6.35;;;2.65;;
5987;SDS011;3021;51.000;6.980;2024-02-21T14:33:00;13.45;;;3.22;;
5987;SDS011;3021;51.000;6.980;2024-02-21T14:35:25;7.15;;;3.10;;
5987;SDS011;3021;51.000;6.980;2024-02-21T14:37:50;10.55;;;3.25;;
5987;SDS011;3021;51.000;6.980;2024-02-21T14:40:17;11.25;;;2.70;;
5987;SDS011;3021;51.000;6.980;2024-02-21T14:42:44;7.03;;;3.00;;
5987;SDS011;3021;51.000;6.980;2024-02-21T14:45:10;9.45;;;3.55;;
5987;SDS011;3021;51.000;6.980;2024-02-21T14:47:35;10.85;;;3.30;;
5987;SDS011;3021;51.000;6.980;2024-02-21T14:50:01;13.75;;;3.20;;
5987;SDS011;3021;51.000;6.980;2024-02-21T14:52:29;10.52;;;3.08;;
5987;SDS011;3021;51.000;6.980;2024-02-21T14:54:54;5.32;;;2.58;;
5987;SDS011;3021;51.000;6.980;2024-02-21T14:57:20;11.25;;;2.85;;
5987;SDS011;3021;51.000;6.980;2024-02-21T14:59:46;10.77;;;3.20;;
5987;SDS011;3021;51.000;6.980;2024-02-21T15:02:12;6.22;;;2.75;;